createdAt,value
2019-04-14T00:00:44.751Z,99381.91
2019-04-14T00:03:23.734Z,99373.86
2019-04-14T00:05:58.240Z,99368.81
2019-04-14T00:08:28.826Z,99367.97
2019-04-14T00:10:59.459Z,99372.69
2019-04-14T00:13:30.917Z,99373.34
2019-04-14T00:16:01.367Z,99368.73
2019-04-14T00:18:31.637Z,99363.83
2019-04-14T00:21:02.240Z,99360.42
2019-04-14T00:23:32.850Z,99364.20
2019-04-14T00:26:29.338Z,99369.37
2019-04-14T00:29:00.147Z,99368.14
2019-04-14T00:31:30.870Z,99369.47
2019-04-14T00:34:04.982Z,99366.88
2019-04-14T00:36:54.998Z,99371.88
2019-04-14T00:39:29.434Z,99367.95
2019-04-14T00:42:13.399Z,99367.98
2019-04-14T00:45:15.491Z,99367.31
2019-04-14T00:48:00.550Z,99369.70
2019-04-14T00:50:25.364Z,99364.86
2019-04-14T00:52:56.647Z,99359.53
2019-04-14T00:55:27.170Z,99359.03
2019-04-14T00:57:57.646Z,99360.98
2019-04-14T01:00:27.829Z,99358.62
2019-04-14T01:03:00.358Z,99357.98
2019-04-14T01:05:32.914Z,99356.78
2019-04-14T01:08:03.167Z,99359.58
2019-04-14T01:10:34.333Z,99360.02
2019-04-14T01:13:06.798Z,99356.86
2019-04-14T01:15:49.120Z,99360.66
2019-04-14T01:18:10.052Z,99354.88
2019-04-14T01:20:40.672Z,99358.31
2019-04-14T01:23:12.888Z,99352.93
2019-04-14T01:25:43.662Z,99354.92
2019-04-14T01:28:13.837Z,99356.92
2019-04-14T01:30:44.079Z,99350.45
2019-04-14T01:33:14.350Z,99345.20
2019-04-14T01:35:44.715Z,99345.87
2019-04-14T01:38:14.903Z,99351.78
2019-04-14T01:40:45.196Z,99345.06
2019-04-14T01:43:16.662Z,99344.95
2019-04-14T01:46:03.963Z,99348.84
2019-04-14T01:48:21.415Z,99353.55
2019-04-14T01:51:09.365Z,99349.98
2019-04-14T01:53:51.025Z,99355.97
2019-04-14T01:56:43.505Z,99355.24
2019-04-14T01:59:15.232Z,99357.83
2019-04-14T02:01:46.176Z,99356.91
2019-04-14T02:04:16.375Z,99358.25
2019-04-14T02:06:48.723Z,99353.98
2019-04-14T02:09:18.941Z,99355.06
2019-04-14T02:11:49.487Z,99357.88
2019-04-14T02:14:21.094Z,99354.36
2019-04-14T02:16:56.070Z,99355.47
2019-04-14T02:19:24.208Z,99358.57
2019-04-14T02:21:56.232Z,99365.12
2019-04-14T02:24:26.734Z,99363.86
2019-04-14T02:26:57.092Z,99361.98
2019-04-14T02:29:27.659Z,99363.57
2019-04-14T02:32:25.320Z,99366.26
2019-04-14T02:34:57.650Z,99359.20
2019-04-14T02:37:29.237Z,99363.91
2019-04-14T02:40:05.328Z,99363.46
2019-04-14T02:42:46.466Z,99370.95
2019-04-14T02:45:13.924Z,99375.20
2019-04-14T02:48:00.087Z,99369.64
2019-04-14T02:52:46.953Z,99368.31
2019-04-14T02:55:08.538Z,99370.75
2019-04-14T02:57:45.053Z,99369.02
2019-04-14T03:00:24.198Z,99376.31
2019-04-14T03:02:48.702Z,99370.70
2019-04-14T03:05:29.435Z,99367.77
2019-04-14T03:08:04.112Z,99375.30
2019-04-14T03:10:33.923Z,99365.91
2019-04-14T03:13:10.528Z,99370.74
2019-04-14T03:21:19.715Z,99365.08
2019-04-14T03:24:07.016Z,99374.44
2019-04-14T03:26:43.880Z,99366.95
2019-04-14T03:29:26.785Z,99368.92
2019-04-14T03:32:11.033Z,99367.82
2019-04-14T03:37:31.128Z,99364.02
2019-04-14T03:39:46.268Z,99360.25
2019-04-14T03:42:10.831Z,99361.03
2019-04-14T03:44:41.524Z,99362.58
2019-04-14T03:47:13.629Z,99362.88
2019-04-14T03:50:00.053Z,99357.92
2019-04-14T03:52:15.274Z,99363.44
2019-04-14T03:54:42.638Z,99361.25
2019-04-14T03:56:55.969Z,99360.25
2019-04-14T03:59:26.349Z,99358.46
2019-04-14T04:01:58.495Z,99359.72
2019-04-14T04:04:29.420Z,99358.95
2019-04-14T04:06:59.775Z,99359.83
2019-04-14T04:09:36.554Z,99361.95
2019-04-14T04:12:07.472Z,99364.84
2019-04-14T04:14:37.918Z,99359.69
2019-04-14T04:17:27.601Z,99363.73
2019-04-14T04:20:19.860Z,99365.86
2019-04-14T04:23:07.768Z,99366.69
2019-04-14T04:25:42.895Z,99364.38
2019-04-14T04:28:36.413Z,99372.11
2019-04-14T04:31:13.431Z,99370.25
2019-04-14T04:34:18.365Z,99367.14
2019-04-14T04:36:59.493Z,99365.59
2019-04-14T04:39:36.999Z,99369.61
2019-04-14T04:42:07.505Z,99368.03
2019-04-14T04:44:37.827Z,99360.53
2019-04-14T04:47:08.054Z,99366.08
2019-04-14T04:49:38.367Z,99367.30
2019-04-14T04:52:11.424Z,99366.72
2019-04-14T04:54:40.735Z,99367.48
2019-04-14T04:57:11.348Z,99376.17
2019-04-14T04:59:43.036Z,99376.73
2019-04-14T05:02:13.725Z,99378.95
2019-04-14T05:04:44.056Z,99379.69
2019-04-14T05:07:14.519Z,99380.55
2019-04-14T05:10:10.983Z,99380.85
2019-04-14T05:13:05.054Z,99384.72
2019-04-14T05:15:48.808Z,99385.44
2019-04-14T05:18:22.102Z,99384.65
2019-04-14T05:20:53.232Z,99388.97
2019-04-14T05:23:25.642Z,99390.13
2019-04-14T05:25:56.197Z,99390.70
2019-04-14T05:28:26.775Z,99388.66
2019-04-14T05:30:57.489Z,99386.61
2019-04-14T05:33:27.885Z,99388.48
2019-04-14T05:35:58.184Z,99391.13
2019-04-14T05:38:31.817Z,99388.44
2019-04-14T05:41:00.479Z,99391.22
2019-04-14T05:43:41.478Z,99392.70
2019-04-14T05:46:03.509Z,99395.00
2019-04-14T05:48:33.840Z,99396.76
2019-04-14T05:51:04.205Z,99393.13
2019-04-14T05:53:35.112Z,99394.05
2019-04-14T05:56:05.868Z,99388.80
2019-04-14T05:58:36.199Z,99383.25
2019-04-14T06:01:09.649Z,99390.83
2019-04-14T06:03:40.792Z,99393.93
2019-04-14T06:06:11.353Z,99395.92
2019-04-14T06:08:41.633Z,99395.92
2019-04-14T06:11:11.833Z,99394.55
2019-04-14T06:13:42.112Z,99401.67
2019-04-14T06:16:12.362Z,99394.53
2019-04-14T06:18:42.584Z,99399.56
2019-04-14T06:21:12.820Z,99400.30
2019-04-14T06:23:43.164Z,99397.13
2019-04-14T06:26:13.397Z,99394.89
2019-04-14T06:28:43.610Z,99395.24
2019-04-14T06:31:36.020Z,99406.19
2019-04-14T06:34:19.281Z,99411.05
2019-04-14T06:37:04.025Z,99408.63
2019-04-14T06:39:37.301Z,99410.75
2019-04-14T06:42:09.789Z,99413.88
2019-04-14T06:44:40.064Z,99416.69
2019-04-14T06:47:10.291Z,99410.63
2019-04-14T06:49:48.702Z,99413.95
2019-04-14T06:52:12.951Z,99412.06
2019-04-14T06:54:43.296Z,99411.89
2019-04-14T06:57:13.498Z,99414.30
2019-04-14T06:59:43.846Z,99414.18
2019-04-14T07:02:14.116Z,99411.81
2019-04-14T07:04:44.725Z,99411.29
2019-04-14T07:07:15.075Z,99413.36
2019-04-14T07:09:45.317Z,99411.03
2019-04-14T07:12:15.608Z,99413.13
2019-04-14T07:14:46.105Z,99420.75
2019-04-14T07:17:17.372Z,99417.63
2019-04-14T07:19:47.542Z,99416.62
2019-04-14T07:22:18.010Z,99419.42
2019-04-14T07:24:48.422Z,99422.32
2019-04-14T07:27:18.619Z,99426.57
2019-04-14T07:29:55.064Z,99421.05
2019-04-14T07:32:47.249Z,99419.17
2019-04-14T07:35:35.290Z,99419.28
2019-04-14T07:38:23.304Z,99428.63
2019-04-14T07:41:11.076Z,99422.47
2019-04-14T07:44:18.856Z,99422.91
2019-04-14T07:46:56.289Z,99422.55
2019-04-14T07:49:49.524Z,99422.48
2019-04-14T07:52:52.280Z,99422.02
2019-04-14T07:55:41.498Z,99428.95
2019-04-14T07:58:42.984Z,99425.16
2019-04-14T08:01:16.349Z,99424.03
2019-04-14T08:04:06.375Z,99424.30
2019-04-14T08:06:38.490Z,99419.42
2019-04-14T08:09:08.945Z,99422.55
2019-04-14T08:11:39.102Z,99425.23
2019-04-14T08:14:09.267Z,99427.39
2019-04-14T08:16:39.858Z,99429.34
2019-04-14T08:19:11.815Z,99436.05
2019-04-14T08:21:42.290Z,99436.59
2019-04-14T08:24:12.578Z,99444.31
2019-04-14T08:26:42.932Z,99442.80
2019-04-14T08:29:13.139Z,99450.75
2019-04-14T08:31:43.358Z,99446.92
2019-04-14T08:34:13.627Z,99456.12
2019-04-14T08:36:43.908Z,99449.00
2019-04-14T08:39:14.206Z,99449.85
2019-04-14T08:41:55.468Z,99454.48
2019-04-14T08:44:40.452Z,99448.33
2019-04-14T08:47:43.294Z,99447.68
2019-04-14T08:50:41.013Z,99453.89
2019-04-14T08:53:19.921Z,99451.55
2019-04-14T08:56:02.527Z,99447.22
2019-04-14T08:58:55.634Z,99440.13
2019-04-14T09:01:32.408Z,99442.88
2019-04-14T09:04:14.956Z,99434.77
2019-04-14T09:07:06.695Z,99438.82
2019-04-14T09:09:40.086Z,99435.88
2019-04-14T09:12:15.921Z,99434.83
2019-04-14T09:14:56.202Z,99437.92
2019-04-14T09:17:18.070Z,99448.45
2019-04-14T09:19:48.327Z,99449.12
2019-04-14T09:22:18.585Z,99457.67
2019-04-14T09:24:49.834Z,99454.08
2019-04-14T09:27:20.081Z,99458.88
2019-04-14T09:29:52.250Z,99455.81
2019-04-14T09:32:22.750Z,99457.59
2019-04-14T09:34:53.026Z,99458.67
2019-04-14T09:37:23.407Z,99459.53
2019-04-14T09:39:53.598Z,99462.44
2019-04-14T09:42:26.075Z,99455.14
2019-04-14T09:44:56.379Z,99453.70
2019-04-14T09:47:28.461Z,99460.83
2019-04-14T09:50:06.693Z,99458.46
2019-04-14T09:52:38.172Z,99462.63
2019-04-14T09:55:09.977Z,99458.97
2019-04-14T09:57:40.237Z,99457.22
2019-04-14T10:00:12.891Z,99454.21
2019-04-14T10:02:44.783Z,99453.17
2019-04-14T10:05:15.134Z,99451.73
2019-04-14T10:07:45.865Z,99461.55
2019-04-14T10:10:16.231Z,99454.56
2019-04-14T10:12:46.556Z,99458.11
2019-04-14T10:15:16.997Z,99464.48
2019-04-14T10:18:14.964Z,99456.14
2019-04-14T10:21:18.637Z,99463.20
2019-04-14T10:23:48.992Z,99462.51
2019-04-14T10:26:19.588Z,99469.46
2019-04-14T10:28:50.825Z,99462.77
2019-04-14T10:31:21.845Z,99463.75
2019-04-14T10:33:52.126Z,99466.89
2019-04-14T10:36:22.456Z,99462.78
2019-04-14T10:38:52.752Z,99467.41
2019-04-14T10:41:23.830Z,99465.77
2019-04-14T10:43:54.428Z,99460.91
2019-04-14T10:46:25.085Z,99471.08
2019-04-14T10:48:56.743Z,99466.91
2019-04-14T10:51:34.052Z,99467.13
2019-04-14T10:54:04.523Z,99462.45
2019-04-14T10:56:34.858Z,99467.66
2019-04-14T10:59:07.103Z,99462.89
2019-04-14T11:01:37.641Z,99461.00
2019-04-14T11:04:08.240Z,99453.36
2019-04-14T11:06:55.647Z,99445.94
2019-04-14T11:09:26.040Z,99450.77
2019-04-14T11:11:57.922Z,99443.56
2019-04-14T11:14:29.353Z,99434.11
2019-04-14T11:17:00.935Z,99433.58
2019-04-14T11:19:31.288Z,99438.95
2019-04-14T11:22:02.643Z,99441.77
2019-04-14T11:24:32.953Z,99440.52
2019-04-14T11:27:03.300Z,99440.48
2019-04-14T11:29:33.621Z,99434.30
2019-04-14T11:32:34.003Z,99433.70
2019-04-14T11:35:32.190Z,99444.53
2019-04-14T11:38:20.490Z,99442.79
2019-04-14T11:40:53.365Z,99436.73
2019-04-14T11:43:23.801Z,99442.36
2019-04-14T11:45:53.990Z,99442.39
2019-04-14T11:48:26.359Z,99442.08
2019-04-14T11:50:57.123Z,99443.35
2019-04-14T11:53:28.825Z,99444.72
2019-04-14T11:55:59.145Z,99444.17
2019-04-14T11:58:29.508Z,99448.71
2019-04-14T12:01:17.634Z,99448.23
2019-04-14T12:04:02.239Z,99450.64
2019-04-14T12:06:50.516Z,99453.78
2019-04-14T12:09:27.128Z,99454.59
2019-04-14T12:11:59.742Z,99458.28
2019-04-14T12:14:30.312Z,99460.70
2019-04-14T12:17:05.037Z,99455.73
2019-04-14T12:19:35.288Z,99463.63
2019-04-14T12:22:08.453Z,99462.28
2019-04-14T12:24:37.499Z,99463.66
2019-04-14T12:27:07.801Z,99463.97
2019-04-14T12:29:39.027Z,99457.34
2019-04-14T12:32:10.750Z,99459.21
2019-04-14T12:34:41.329Z,99454.66
2019-04-14T12:37:11.615Z,99459.48
2019-04-14T12:39:43.091Z,99460.80
2019-04-14T12:42:33.272Z,99460.03
2019-04-14T12:45:25.581Z,99455.26
2019-04-14T12:48:26.874Z,99454.73
2019-04-14T12:51:00.567Z,99458.92
2019-04-14T12:53:30.954Z,99456.78
2019-04-14T12:56:01.206Z,99456.27
2019-04-14T12:58:48.204Z,99451.77
2019-04-14T13:01:19.056Z,99453.89
2019-04-14T13:03:49.405Z,99448.25
2019-04-14T13:06:21.085Z,99449.03
2019-04-14T13:08:52.430Z,99439.47
2019-04-14T13:11:22.738Z,99440.92
2019-04-14T13:13:53.423Z,99443.88
2019-04-14T13:16:23.652Z,99442.53
2019-04-14T13:18:57.545Z,99442.63
2019-04-14T13:21:27.901Z,99436.02
2019-04-14T13:23:58.625Z,99443.90
2019-04-14T13:26:29.141Z,99438.74
2019-04-14T13:28:59.366Z,99438.02
2019-04-14T13:31:29.578Z,99422.59
2019-04-14T13:33:59.780Z,99425.56
2019-04-14T13:36:30.080Z,99422.49
2019-04-14T13:39:00.436Z,99428.66
2019-04-14T13:41:31.159Z,99421.14
2019-04-14T13:44:01.384Z,99428.73
2019-04-14T13:46:33.438Z,99425.31
2019-04-14T13:49:04.794Z,99418.69
2019-04-14T13:51:35.134Z,99417.09
2019-04-14T13:54:05.503Z,99419.19
2019-04-14T13:56:37.061Z,99418.56
2019-04-14T13:59:07.389Z,99420.34
2019-04-14T14:01:38.127Z,99420.39
2019-04-14T14:04:08.320Z,99413.87
2019-04-14T14:06:38.592Z,99410.59
2019-04-14T14:09:12.216Z,99409.56
2019-04-14T14:12:01.581Z,99413.72
2019-04-14T14:14:51.059Z,99403.89
2019-04-14T14:17:28.172Z,99411.91
2019-04-14T14:20:26.756Z,99405.75
2019-04-14T14:23:14.667Z,99405.93
2019-04-14T14:25:51.369Z,99403.72
2019-04-14T14:28:23.747Z,99410.23
2019-04-14T14:30:55.226Z,99410.59
2019-04-14T14:33:25.925Z,99414.64
2019-04-14T14:35:56.822Z,99414.48
2019-04-14T14:38:27.124Z,99420.31
2019-04-14T14:40:59.152Z,99417.50
2019-04-14T14:43:30.410Z,99409.66
2019-04-14T14:46:29.669Z,99411.48
2019-04-14T14:49:21.073Z,99416.46
2019-04-14T14:51:54.172Z,99413.05
2019-04-14T14:54:24.438Z,99419.02
2019-04-14T14:56:56.997Z,99418.16
2019-04-14T14:59:27.236Z,99413.89
2019-04-14T15:01:57.435Z,99417.92
2019-04-14T15:04:27.700Z,99415.90
2019-04-14T15:06:58.071Z,99415.54
2019-04-14T15:09:28.316Z,99416.63
2019-04-14T15:11:59.815Z,99409.69
2019-04-14T15:14:31.117Z,99414.45
2019-04-14T15:17:02.718Z,99405.22
2019-04-14T15:19:32.936Z,99412.91
2019-04-14T15:22:03.849Z,99409.49
2019-04-14T15:24:34.108Z,99415.59
2019-04-14T15:27:04.547Z,99413.66
2019-04-14T15:29:35.460Z,99423.14
2019-04-14T15:32:06.836Z,99416.94
2019-04-14T15:34:37.476Z,99425.80
2019-04-14T15:37:07.849Z,99430.86
2019-04-14T15:39:38.758Z,99425.94
2019-04-14T15:42:09.041Z,99425.82
2019-04-14T15:44:39.353Z,99430.71
2019-04-14T15:47:11.678Z,99429.27
2019-04-14T15:49:41.881Z,99432.09
2019-04-14T15:52:12.085Z,99439.45
2019-04-14T15:54:44.746Z,99436.37
2019-04-14T15:57:31.745Z,99440.29
2019-04-14T16:00:49.034Z,99445.34
2019-04-14T16:03:33.985Z,99440.09
2019-04-14T16:06:22.213Z,99449.17
2019-04-14T16:09:00.641Z,99448.56
2019-04-14T16:11:41.074Z,99451.08
2019-04-14T16:14:30.325Z,99454.34
2019-04-14T16:17:19.552Z,99456.41
2019-04-14T16:19:55.323Z,99457.75
2019-04-14T16:22:25.660Z,99459.66
2019-04-14T16:24:55.876Z,99461.72
2019-04-14T16:27:48.570Z,99460.41
2019-04-14T16:30:34.191Z,99462.54
2019-04-14T16:33:23.420Z,99466.84
2019-04-14T16:35:54.643Z,99465.17
2019-04-14T16:38:24.987Z,99466.46
2019-04-14T16:40:55.335Z,99472.61
2019-04-14T16:43:26.849Z,99469.63
2019-04-14T16:45:59.384Z,99474.95
2019-04-14T16:48:29.621Z,99485.33
2019-04-14T16:51:00.054Z,99481.09
2019-04-14T16:53:36.293Z,99477.88
2019-04-14T16:56:28.494Z,99482.42
2019-04-14T16:59:04.958Z,99481.29
2019-04-14T17:01:38.170Z,99478.41
2019-04-14T17:04:08.680Z,99485.33
2019-04-14T17:06:38.857Z,99492.33
2019-04-14T17:09:09.765Z,99487.80
2019-04-14T17:11:41.658Z,99492.60
2019-04-14T17:14:36.105Z,99496.28
2019-04-14T17:17:33.555Z,99498.23
2019-04-14T17:20:22.210Z,99496.30
2019-04-14T17:23:16.055Z,99506.45
2019-04-14T17:26:04.680Z,99508.91
2019-04-14T17:28:53.961Z,99515.88
2019-04-14T17:31:32.196Z,99518.04
2019-04-14T17:34:16.104Z,99515.36
2019-04-14T17:37:02.637Z,99517.22
2019-04-14T17:39:41.287Z,99518.41
2019-04-14T17:42:20.611Z,99525.31
2019-04-14T17:44:55.638Z,99525.31
2019-04-14T17:47:39.035Z,99529.84
2019-04-14T17:50:40.614Z,99534.95
2019-04-14T17:53:23.425Z,99537.88
2019-04-14T17:56:13.485Z,99541.33
2019-04-14T17:59:01.623Z,99546.44
2019-04-14T18:01:50.869Z,99551.75
2019-04-14T18:04:28.781Z,99550.70
2019-04-14T18:07:24.044Z,99559.46
2019-04-14T18:10:18.281Z,99561.59
2019-04-14T18:12:57.398Z,99563.21
2019-04-14T18:15:46.656Z,99560.34
2019-04-14T18:18:29.761Z,99569.38
2019-04-14T18:21:06.091Z,99569.66
2019-04-14T18:23:36.267Z,99574.71
2019-04-14T18:26:08.689Z,99573.94
2019-04-14T18:28:49.844Z,99580.33
2019-04-14T18:31:24.948Z,99580.08
2019-04-14T18:34:18.700Z,99578.50
2019-04-14T18:37:10.648Z,99586.24
2019-04-14T18:40:00.211Z,99582.79
2019-04-14T18:42:37.818Z,99590.23
2019-04-14T18:45:23.166Z,99588.16
2019-04-14T18:48:05.078Z,99592.61
2019-04-14T18:51:06.420Z,99592.14
2019-04-14T18:53:58.039Z,99597.98
2019-04-14T18:56:46.194Z,99600.36
2019-04-14T18:59:39.191Z,99606.77
2019-04-14T19:02:11.460Z,99613.94
2019-04-14T19:04:41.703Z,99609.97
2019-04-14T19:07:11.981Z,99612.37
2019-04-14T19:09:42.165Z,99621.14
2019-04-14T19:12:30.399Z,99611.06
2019-04-14T19:15:18.733Z,99619.31
2019-04-14T19:17:55.749Z,99628.08
2019-04-14T19:20:26.052Z,99625.67
2019-04-14T19:22:56.886Z,99628.36
2019-04-14T19:25:27.170Z,99625.98
2019-04-14T19:27:57.414Z,99632.88
2019-04-14T19:30:27.606Z,99643.22
2019-04-14T19:32:57.813Z,99644.57
2019-04-14T19:35:28.110Z,99646.14
2019-04-14T19:37:58.309Z,99649.36
2019-04-14T19:40:28.571Z,99647.47
2019-04-14T19:42:58.758Z,99653.34
2019-04-14T19:45:29.075Z,99652.81
2019-04-14T19:47:59.467Z,99652.78
2019-04-14T19:50:30.073Z,99655.47
2019-04-14T19:53:00.401Z,99653.08
2019-04-14T19:55:30.709Z,99649.63
2019-04-14T19:58:00.919Z,99651.75
2019-04-14T20:00:31.075Z,99652.55
2019-04-14T20:03:01.261Z,99652.80
2019-04-14T20:05:31.796Z,99654.69
2019-04-14T20:08:02.089Z,99655.73
2019-04-14T20:10:32.296Z,99668.48
2019-04-14T20:13:02.649Z,99666.08
2019-04-14T20:15:37.666Z,99670.06
2019-04-14T20:18:29.495Z,99669.02
2019-04-14T20:21:10.198Z,99672.46
2019-04-14T20:23:51.650Z,99677.49
2019-04-14T20:26:54.977Z,99674.04
2019-04-14T20:29:28.342Z,99670.86
2019-04-14T20:32:02.481Z,99670.87
2019-04-14T20:34:32.722Z,99679.87
2019-04-14T20:37:03.382Z,99678.53
2019-04-14T20:39:33.863Z,99682.80
2019-04-14T20:42:04.509Z,99678.80
2019-04-14T20:44:34.773Z,99685.98
2019-04-14T20:47:08.374Z,99690.48
2019-04-14T20:49:39.336Z,99690.48
2019-04-14T20:52:09.578Z,99692.34
2019-04-14T20:54:39.778Z,99692.87
2019-04-14T20:57:09.998Z,99693.94
2019-04-14T20:59:40.264Z,99698.98
2019-04-14T21:02:47.682Z,99701.11
2019-04-14T21:05:44.005Z,99697.65
2019-04-14T21:08:32.709Z,99704.00
2019-04-14T21:11:08.489Z,99703.22
2019-04-14T21:14:16.011Z,99706.14
2019-04-14T21:16:55.144Z,99704.01
2019-04-14T21:19:31.995Z,99709.05
2019-04-14T21:22:13.260Z,99704.27
2019-04-14T21:24:48.614Z,99709.31
2019-04-14T21:27:56.671Z,99714.11
2019-04-14T21:30:45.865Z,99710.91
2019-04-14T21:33:29.746Z,99720.72
2019-04-14T21:36:08.177Z,99717.53
2019-04-14T21:38:52.690Z,99720.16
2019-04-14T21:41:25.730Z,99722.58
2019-04-14T21:43:57.612Z,99723.59
2019-04-14T21:46:27.886Z,99725.98
2019-04-14T21:48:58.123Z,99728.88
2019-04-14T21:51:47.404Z,99728.32
2019-04-14T21:54:18.597Z,99730.16
2019-04-14T21:56:57.759Z,99730.62
2019-04-14T21:59:30.954Z,99733.56
2019-04-14T22:02:18.876Z,99735.34
2019-04-14T22:05:11.160Z,99742.22
2019-04-14T22:07:58.349Z,99745.41
2019-04-14T22:10:40.154Z,99745.38
2019-04-14T22:13:10.564Z,99749.30
2019-04-14T22:15:41.294Z,99751.14
2019-04-14T22:18:15.619Z,99762.97
2019-04-14T22:20:45.938Z,99764.88
2019-04-14T22:23:16.234Z,99767.66
2019-04-14T22:25:46.798Z,99770.93
2019-04-14T22:28:16.992Z,99768.44
2019-04-14T22:30:47.483Z,99769.17
2019-04-14T22:33:17.678Z,99770.70
2019-04-14T22:35:47.963Z,99770.67
2019-04-14T22:38:18.191Z,99770.41
2019-04-14T22:40:48.497Z,99764.28
2019-04-14T22:43:18.928Z,99778.83
2019-04-14T22:45:49.173Z,99775.61
2019-04-14T22:48:19.400Z,99775.09
2019-04-14T22:50:49.620Z,99770.36
2019-04-14T22:53:19.874Z,99779.95
2019-04-14T22:55:51.283Z,99780.45
2019-04-14T22:58:21.485Z,99779.22
2019-04-14T23:00:56.018Z,99775.81
2019-04-14T23:03:46.584Z,99776.59
2019-04-14T23:06:48.256Z,99772.36
2019-04-14T23:09:29.792Z,99779.80
2019-04-14T23:12:18.974Z,99774.01
2019-04-14T23:14:57.551Z,99778.73
2019-04-14T23:17:49.713Z,99774.23
2019-04-14T23:20:30.294Z,99768.98
2019-04-14T23:23:08.022Z,99779.30
2019-04-14T23:25:38.998Z,99777.66
2019-04-14T23:28:09.336Z,99775.27
2019-04-14T23:30:39.619Z,99776.56
2019-04-14T23:33:09.875Z,99778.98
2019-04-14T23:35:40.220Z,99782.39
2019-04-14T23:38:12.302Z,99787.16
2019-04-14T23:40:42.481Z,99786.59
2019-04-14T23:43:12.716Z,99786.83
2019-04-14T23:45:43.096Z,99787.69
2019-04-14T23:48:13.408Z,99795.80
2019-04-14T23:50:43.571Z,99789.33
2019-04-14T23:53:14.079Z,99794.13
2019-04-14T23:55:44.373Z,99794.69
2019-04-14T23:58:14.633Z,99799.41
